Time;durP1;ratioP1;P1;durP2;ratioP2;P2;SDS_P1;SDS_P2;PMS_P1;PMS_P2;Temp;Humidity;BMP_temperature;BMP_pressure;BME280_temperature;BME280_humidity;BME280_pressure;Samples;Min_cycle;Max_cycle;Signal;HPM_P1;HPM_P2
2021/11/26 00:00:47;;;;;;;33.40;19.37;;;4.30;99.90;;;;;;5031003;28;20241;-67
2021/11/26 00:03:14;;;;;;;32.60;19.73;;;4.30;99.90;;;;;;5020300;28;20382;-68
2021/11/26 00:05:41;;;;;;;34.93;19.43;;;4.30;99.90;;;;;;5020942;28;20211;-67
2021/11/26 00:08:08;;;;;;;32.77;18.87;;;4.30;99.90;;;;;;5027074;28;20218;-66
2021/11/26 00:10:36;;;;;;;33.87;20.00;;;4.30;99.90;;;;;;5018251;28;20238;-67
2021/11/26 00:13:06;;;;;;;33.67;19.87;;;3.70;99.90;;;;;;5020732;28;20246;-66
2021/11/26 00:15:38;;;;;;;32.43;19.30;;;4.30;99.90;;;;;;5015446;28;20723;-67
2021/11/26 00:18:08;;;;;;;34.07;20.00;;;4.30;99.90;;;;;;5012899;28;20211;-67
2021/11/26 00:20:36;;;;;;;34.53;19.20;;;4.40;99.90;;;;;;5015706;28;20230;-67
2021/11/26 00:23:03;;;;;;;31.50;18.93;;;4.40;99.90;;;;;;5025677;28;20305;-66
2021/11/26 00:25:30;;;;;;;33.43;19.60;;;4.30;99.90;;;;;;5017174;28;20263;-66
2021/11/26 00:27:58;;;;;;;33.27;18.90;;;4.30;99.90;;;;;;5012622;28;20254;-67
2021/11/26 00:30:26;;;;;;;35.27;19.10;;;4.40;99.90;;;;;;5022264;28;20258;-69
2021/11/26 00:32:53;;;;;;;33.37;19.07;;;4.40;99.90;;;;;;5026100;28;20261;-68
2021/11/26 00:35:20;;;;;;;31.70;18.37;;;4.40;99.90;;;;;;5018707;28;20319;-67
2021/11/26 00:37:47;;;;;;;32.20;19.47;;;4.40;99.90;;;;;;5015447;28;20298;-67
2021/11/26 00:40:15;;;;;;;34.67;18.83;;;4.40;99.90;;;;;;5021645;28;20214;-66
2021/11/26 00:42:42;;;;;;;29.23;18.50;;;4.40;99.90;;;;;;5031723;28;20656;-67
2021/11/26 00:45:13;;;;;;;33.63;18.43;;;4.40;99.90;;;;;;5028815;28;20210;-67
2021/11/26 00:47:41;;;;;;;29.00;19.03;;;4.40;99.90;;;;;;5026556;28;20203;-67
2021/11/26 00:50:09;;;;;;;31.30;18.23;;;4.30;99.90;;;;;;5031827;28;20541;-67
2021/11/26 00:52:36;;;;;;;30.93;18.73;;;4.40;99.90;;;;;;5025370;28;20230;-67
2021/11/26 00:55:03;;;;;;;29.83;18.17;;;4.40;99.90;;;;;;5018546;28;20322;-67
2021/11/26 00:57:30;;;;;;;31.93;19.07;;;4.40;99.90;;;;;;5017187;28;20262;-67
2021/11/26 00:59:58;;;;;;;29.70;18.03;;;4.40;99.90;;;;;;5030065;28;20250;-68
2021/11/26 01:02:26;;;;;;;31.13;19.10;;;4.40;99.90;;;;;;5019547;28;20605;-66
2021/11/26 01:04:53;;;;;;;28.37;17.47;;;4.40;99.90;;;;;;5019530;28;20214;-66
2021/11/26 01:07:20;;;;;;;29.90;18.53;;;4.50;99.90;;;;;;5022112;28;20863;-66
2021/11/26 01:09:46;;;;;;;31.33;19.43;;;4.50;99.90;;;;;;5030971;28;20245;-67
2021/11/26 01:12:13;;;;;;;31.50;19.43;;;4.50;99.90;;;;;;5026809;28;20302;-67
2021/11/26 01:14:40;;;;;;;33.20;20.20;;;4.50;99.90;;;;;;5013812;28;20222;-67
2021/11/26 01:17:07;;;;;;;31.57;19.33;;;4.50;99.90;;;;;;5017966;28;20218;-67
2021/11/26 01:19:35;;;;;;;35.13;19.90;;;4.50;99.90;;;;;;5017339;28;20524;-68
2021/11/26 01:22:02;;;;;;;32.90;19.70;;;4.50;99.90;;;;;;5031358;28;20373;-67
2021/11/26 01:24:29;;;;;;;30.57;19.17;;;4.50;99.90;;;;;;5023532;28;20319;-66
2021/11/26 01:26:56;;;;;;;34.70;19.27;;;4.50;99.90;;;;;;5014920;28;20722;-68
2021/11/26 01:29:23;;;;;;;31.47;19.67;;;4.50;99.90;;;;;;5024804;28;20207;-67
2021/11/26 01:31:50;;;;;;;33.07;19.50;;;4.50;99.90;;;;;;5031051;28;20294;-68
2021/11/26 01:34:17;;;;;;;31.90;19.83;;;4.50;99.90;;;;;;5027298;28;20641;-67
2021/11/26 01:36:48;;;;;;;35.17;20.77;;;4.50;99.90;;;;;;5017600;28;20261;-67
2021/11/26 01:39:15;;;;;;;34.43;20.00;;;4.50;99.90;;;;;;5013756;28;20209;-67
2021/11/26 01:41:43;;;;;;;36.53;19.83;;;4.50;99.90;;;;;;5028963;28;20297;-67
2021/11/26 01:44:10;;;;;;;33.60;19.33;;;4.50;99.90;;;;;;5017020;28;20261;-67
2021/11/26 01:46:40;;;;;;;32.00;19.70;;;4.60;99.90;;;;;;5018024;28;20317;-68
2021/11/26 01:49:07;;;;;;;31.50;19.77;;;4.50;99.90;;;;;;5011703;28;20657;-67
2021/11/26 01:51:34;;;;;;;31.43;18.87;;;4.60;99.90;;;;;;5025771;28;20298;-67
2021/11/26 01:54:03;;;;;;;32.73;18.77;;;4.60;99.90;;;;;;5026030;28;20249;-67
2021/11/26 01:56:30;;;;;;;29.37;19.23;;;4.50;99.90;;;;;;5030189;28;20337;-68
2021/11/26 01:58:58;;;;;;;33.47;18.57;;;4.50;99.90;;;;;;5023591;28;20247;-67
2021/11/26 02:01:26;;;;;;;31.67;19.47;;;4.50;99.90;;;;;;5010975;28;20225;-67
2021/11/26 02:03:53;;;;;;;34.10;19.57;;;4.60;99.90;;;;;;5024855;28;20725;-66
2021/11/26 02:06:20;;;;;;;33.07;18.63;;;4.50;99.90;;;;;;5014080;28;20314;-66
2021/11/26 02:08:48;;;;;;;31.60;20.07;;;4.40;99.90;;;;;;5026478;28;20650;-67
2021/11/26 02:11:16;;;;;;;30.73;19.00;;;4.40;99.90;;;;;;5030793;28;20711;-66
2021/11/26 02:13:43;;;;;;;32.90;19.97;;;4.40;99.90;;;;;;5027356;28;20321;-67
2021/11/26 02:16:10;;;;;;;29.27;18.23;;;4.40;99.90;;;;;;5016790;28;20226;-67
2021/11/26 02:18:37;;;;;;;33.77;20.53;;;4.40;99.90;;;;;;5010803;28;20294;-69
2021/11/26 02:21:06;;;;;;;31.97;19.93;;;4.40;99.90;;;;;;5016920;28;20277;-67
2021/11/26 02:23:33;;;;;;;31.13;19.03;;;4.50;99.90;;;;;;5021602;28;20211;-68
2021/11/26 02:26:00;;;;;;;33.17;19.70;;;4.50;99.90;;;;;;5027473;28;20633;-68
2021/11/26 02:28:27;;;;;;;27.90;18.33;;;4.40;99.90;;;;;;5018780;28;20299;-67
2021/11/26 02:30:54;;;;;;;30.87;19.23;;;4.50;99.90;;;;;;5011090;28;20214;-68
2021/11/26 02:33:22;;;;;;;31.83;19.90;;;4.50;99.90;;;;;;5011017;28;20662;-68
2021/11/26 02:35:52;;;;;;;30.73;18.97;;;4.50;99.90;;;;;;5021728;28;20317;-68
2021/11/26 02:38:22;;;;;;;30.37;18.73;;;4.50;99.90;;;;;;5017865;28;20277;-68
2021/11/26 02:40:49;;;;;;;32.23;20.60;;;4.40;99.90;;;;;;5025271;28;20310;-67
2021/11/26 02:43:17;;;;;;;33.30;19.77;;;4.50;99.90;;;;;;5030152;28;20305;-67
2021/11/26 02:45:46;;;;;;;32.37;20.47;;;4.40;99.90;;;;;;5016061;28;20650;-67
2021/11/26 02:48:14;;;;;;;29.73;18.43;;;4.40;99.90;;;;;;5022439;28;20646;-67
2021/11/26 02:50:42;;;;;;;33.20;19.70;;;4.40;99.90;;;;;;5014117;28;20234;-68
2021/11/26 02:53:10;;;;;;;29.73;17.97;;;4.40;99.90;;;;;;5029920;28;20249;-69
2021/11/26 02:55:39;;;;;;;31.37;19.03;;;4.50;99.90;;;;;;5021757;28;20214;-68
2021/11/26 02:58:07;;;;;;;31.90;19.47;;;4.40;99.90;;;;;;5026677;28;20711;-68
2021/11/26 03:00:35;;;;;;;33.13;19.07;;;4.50;99.90;;;;;;5010343;28;20238;-68
2021/11/26 03:03:02;;;;;;;30.83;19.63;;;4.50;99.90;;;;;;5010485;28;20318;-68
2021/11/26 03:05:29;;;;;;;28.63;17.33;;;4.50;99.90;;;;;;5023948;28;20203;-68
2021/11/26 03:07:56;;;;;;;32.43;17.67;;;4.50;99.90;;;;;;5016397;28;20238;-68
2021/11/26 03:10:23;;;;;;;30.50;18.50;;;4.50;99.90;;;;;;5016750;28;20290;-68
2021/11/26 03:12:55;;;;;;;27.70;17.67;;;4.50;99.90;;;;;;5018008;28;20736;-67
2021/11/26 03:15:23;;;;;;;26.67;16.43;;;4.50;99.90;;;;;;5009992;28;20262;-68
2021/11/26 03:17:50;;;;;;;29.23;18.27;;;4.50;99.90;;;;;;5026178;28;20645;-68
2021/11/26 03:20:19;;;;;;;30.90;19.27;;;4.50;99.90;;;;;;5015032;28;20246;-68
2021/11/26 03:22:47;;;;;;;28.93;17.47;;;4.40;99.90;;;;;;5010253;28;20294;-68
2021/11/26 03:25:14;;;;;;;32.80;19.20;;;4.50;99.90;;;;;;5010073;28;20684;-68
2021/11/26 03:27:42;;;;;;;30.73;18.80;;;4.50;99.90;;;;;;5018388;28;20294;-68
2021/11/26 03:30:12;;;;;;;30.83;19.17;;;4.50;99.90;;;;;;5022037;28;20656;-67
2021/11/26 03:32:39;;;;;;;28.37;18.00;;;4.50;99.90;;;;;;5025643;28;20202;-68
2021/11/26 03:35:07;;;;;;;32.87;17.83;;;4.50;99.90;;;;;;5021486;28;20722;-68
2021/11/26 03:37:35;;;;;;;27.60;18.30;;;4.50;99.90;;;;;;5029042;28;20253;-66
2021/11/26 03:40:02;;;;;;;31.67;18.83;;;4.50;99.90;;;;;;5020485;28;20286;-67
2021/11/26 03:42:29;;;;;;;29.23;18.70;;;4.60;99.90;;;;;;5025127;28;20305;-67
2021/11/26 03:44:56;;;;;;;32.90;19.80;;;4.60;99.90;;;;;;5010093;28;20321;-67
2021/11/26 03:47:25;;;;;;;32.40;19.13;;;4.70;99.90;;;;;;5012937;28;20648;-68
2021/11/26 03:49:52;;;;;;;33.53;19.97;;;4.60;99.90;;;;;;5015469;28;20207;-68
2021/11/26 03:52:19;;;;;;;30.97;19.50;;;4.60;99.90;;;;;;5022532;28;20716;-68
2021/11/26 03:54:46;;;;;;;32.53;19.37;;;4.60;99.90;;;;;;5032051;28;20305;-67
2021/11/26 03:57:13;;;;;;;34.97;19.67;;;4.70;99.90;;;;;;5017040;28;20230;-68
2021/11/26 03:59:40;;;;;;;30.57;19.27;;;4.60;99.90;;;;;;5025887;28;20302;-67
2021/11/26 04:02:08;;;;;;;36.90;21.57;;;4.70;99.90;;;;;;5013470;28;20290;-67
2021/11/26 04:04:36;;;;;;;35.50;20.37;;;4.60;99.90;;;;;;5013147;28;20211;-67
2021/11/26 04:07:03;;;;;;;33.50;20.43;;;4.60;99.90;;;;;;5024865;28;20286;-67
2021/11/26 04:09:30;;;;;;;35.47;20.93;;;4.60;99.90;;;;;;5013199;28;20302;-67
2021/11/26 04:11:57;;;;;;;32.80;20.00;;;4.60;99.90;;;;;;5025782;28;20218;-67
2021/11/26 04:14:25;;;;;;;33.43;20.33;;;4.60;99.90;;;;;;5012691;28;20241;-67
2021/11/26 04:16:52;;;;;;;35.20;21.07;;;4.60;99.90;;;;;;5018723;28;20222;-66
2021/11/26 04:19:20;;;;;;;31.50;20.67;;;4.60;99.90;;;;;;5012703;28;20290;-68
2021/11/26 04:21:48;;;;;;;33.13;20.43;;;4.60;99.90;;;;;;5027507;28;20708;-68
2021/11/26 04:24:15;;;;;;;35.40;21.50;;;4.60;99.90;;;;;;5016864;28;20238;-67
2021/11/26 04:26:42;;;;;;;34.93;21.43;;;4.60;99.90;;;;;;5017608;28;20692;-68
2021/11/26 04:29:09;;;;;;;34.10;20.03;;;4.70;99.90;;;;;;5018772;28;20209;-67
2021/11/26 04:31:36;;;;;;;33.83;21.33;;;4.70;99.90;;;;;;5032801;28;20289;-68
2021/11/26 04:34:03;;;;;;;33.80;20.30;;;4.60;99.90;;;;;;5018307;28;20310;-68
2021/11/26 04:36:29;;;;;;;34.87;21.13;;;4.60;99.90;;;;;;5029058;28;20290;-67
2021/11/26 04:38:58;;;;;;;31.80;20.10;;;4.60;99.90;;;;;;5032617;28;20289;-67
2021/11/26 04:41:25;;;;;;;32.73;19.87;;;4.60;99.90;;;;;;5019334;28;20285;-68
2021/11/26 04:43:51;;;;;;;36.33;20.87;;;4.60;99.90;;;;;;5031325;28;20293;-68
2021/11/26 04:46:18;;;;;;;31.23;21.33;;;4.60;99.90;;;;;;5027576;28;20227;-68
2021/11/26 04:48:45;;;;;;;33.80;20.67;;;4.60;99.90;;;;;;5012979;28;20294;-67
2021/11/26 04:51:12;;;;;;;31.60;19.20;;;4.60;99.90;;;;;;5015570;28;20234;-67
2021/11/26 04:53:39;;;;;;;31.37;19.57;;;4.60;99.90;;;;;;5011874;28;20625;-68
2021/11/26 04:56:07;;;;;;;32.23;19.90;;;4.60;99.90;;;;;;5013820;28;20314;-67
2021/11/26 04:58:35;;;;;;;30.40;19.20;;;4.60;99.90;;;;;;5023992;28;20246;-68
2021/11/26 05:01:03;;;;;;;28.73;18.53;;;4.60;99.90;;;;;;5031232;28;20218;-67
2021/11/26 05:03:30;;;;;;;29.00;18.93;;;4.70;99.90;;;;;;5029854;28;20297;-67
2021/11/26 05:05:57;;;;;;;29.83;19.23;;;4.70;99.90;;;;;;5017407;28;20712;-68
2021/11/26 05:08:23;;;;;;;30.17;19.23;;;4.70;99.90;;;;;;5021970;28;20289;-68
2021/11/26 05:10:53;;;;;;;28.20;18.30;;;4.70;99.90;;;;;;5019449;28;20261;-67
2021/11/26 05:13:23;;;;;;;32.67;19.87;;;4.70;99.90;;;;;;5020923;28;20235;-68
2021/11/26 05:15:51;;;;;;;31.07;19.87;;;4.70;99.90;;;;;;5017806;28;20215;-68
2021/11/26 05:18:23;;;;;;;34.70;19.67;;;4.70;99.90;;;;;;5019109;28;20294;-67
2021/11/26 05:20:51;;;;;;;28.70;19.40;;;4.70;99.90;;;;;;5023278;28;20754;-69
2021/11/26 05:23:18;;;;;;;31.47;19.43;;;4.70;99.90;;;;;;5012067;28;20207;-67
2021/11/26 05:25:45;;;;;;;31.07;19.13;;;4.70;99.90;;;;;;5015844;28;20239;-67
2021/11/26 05:28:13;;;;;;;33.67;19.70;;;4.70;99.90;;;;;;5017431;28;20251;-68
2021/11/26 05:30:41;;;;;;;30.97;19.27;;;4.70;99.90;;;;;;5013441;28;20242;-67
2021/11/26 05:33:08;;;;;;;30.40;18.63;;;4.70;99.90;;;;;;5023108;28;20207;-67
2021/11/26 05:35:35;;;;;;;33.63;19.80;;;4.80;99.90;;;;;;5011403;28;20211;-68
2021/11/26 05:38:03;;;;;;;30.77;17.97;;;4.80;99.90;;;;;;5025714;28;20687;-68
2021/11/26 05:40:30;;;;;;;35.03;18.83;;;4.80;99.90;;;;;;5027849;28;20211;-67
2021/11/26 05:42:57;;;;;;;32.13;19.40;;;4.80;99.90;;;;;;5012639;28;20297;-68
2021/11/26 05:45:24;;;;;;;31.17;18.53;;;4.80;99.90;;;;;;5020186;28;20297;-68
2021/11/26 05:47:53;;;;;;;28.63;18.83;;;4.90;99.90;;;;;;5011914;28;20735;-68
2021/11/26 05:50:21;;;;;;;27.87;18.10;;;4.90;99.90;;;;;;5015272;28;20301;-68
2021/11/26 05:52:49;;;;;;;28.83;17.13;;;4.90;99.90;;;;;;5011581;28;20207;-69
2021/11/26 05:55:18;;;;;;;31.27;18.83;;;4.80;99.90;;;;;;5013163;28;20198;-67
2021/11/26 05:57:46;;;;;;;26.73;17.77;;;4.90;99.90;;;;;;5017330;28;20275;-67
2021/11/26 06:00:15;;;;;;;29.23;18.20;;;4.90;99.90;;;;;;5028820;28;20210;-68
2021/11/26 06:02:43;;;;;;;36.40;19.43;;;4.80;99.90;;;;;;5010453;28;20294;-67
2021/11/26 06:05:11;;;;;;;34.30;19.00;;;4.90;99.90;;;;;;5025273;28;20638;-68
2021/11/26 06:07:38;;;;;;;31.07;19.33;;;4.90;99.90;;;;;;5012058;28;20206;-67
2021/11/26 06:10:08;;;;;;;31.03;18.03;;;4.90;99.90;;;;;;5014300;28;20242;-67
2021/11/26 06:12:35;;;;;;;29.67;18.30;;;4.90;99.90;;;;;;5018060;28;20246;-67
2021/11/26 06:15:02;;;;;;;29.23;18.57;;;4.90;99.90;;;;;;5017983;28;20298;-67
2021/11/26 06:17:29;;;;;;;31.67;18.70;;;4.90;99.90;;;;;;5019712;28;20631;-67
2021/11/26 06:19:56;;;;;;;34.23;19.23;;;4.90;99.90;;;;;;5029509;28;20589;-67
2021/11/26 06:22:24;;;;;;;28.50;17.17;;;4.90;99.90;;;;;;5025030;28;20207;-67
2021/11/26 06:24:51;;;;;;;31.10;19.03;;;5.00;99.90;;;;;;5011543;28;20300;-68
2021/11/26 06:27:18;;;;;;;31.33;19.90;;;5.00;99.90;;;;;;5018678;28;20598;-68
2021/11/26 06:29:45;;;;;;;32.63;19.10;;;5.00;99.90;;;;;;5021057;28;20221;-68
2021/11/26 06:32:12;;;;;;;30.23;19.13;;;5.00;99.90;;;;;;5016582;28;20630;-68
2021/11/26 06:34:39;;;;;;;35.97;18.83;;;5.00;99.90;;;;;;5024133;28;20294;-68
2021/11/26 06:37:06;;;;;;;31.87;18.57;;;5.00;99.90;;;;;;5023954;28;20712;-67
2021/11/26 06:39:35;;;;;;;30.03;19.20;;;5.10;99.90;;;;;;5016975;28;20203;-67
2021/11/26 06:42:03;;;;;;;32.23;18.77;;;5.00;99.90;;;;;;5024268;28;20210;-67
2021/11/26 06:44:30;;;;;;;32.03;19.10;;;5.00;99.90;;;;;;5016212;28;20207;-69
2021/11/26 06:46:56;;;;;;;33.13;20.10;;;4.90;99.90;;;;;;5018257;28;20298;-67
2021/11/26 06:49:23;;;;;;;30.10;18.50;;;4.90;99.90;;;;;;5012754;28;20643;-67
2021/11/26 06:51:50;;;;;;;32.93;19.87;;;4.90;99.90;;;;;;5013503;28;20290;-67
2021/11/26 06:54:17;;;;;;;34.83;18.80;;;4.90;99.90;;;;;;5010434;28;20298;-66
2021/11/26 06:56:46;;;;;;;34.40;19.60;;;4.90;99.90;;;;;;5013625;28;20588;-68
2021/11/26 06:59:12;;;;;;;33.93;20.53;;;4.90;99.90;;;;;;5027655;28;20257;-68
2021/11/26 07:01:40;;;;;;;31.03;19.33;;;4.90;99.90;;;;;;5023901;28;20230;-68
2021/11/26 07:04:09;;;;;;;32.77;19.60;;;4.90;99.90;;;;;;5022095;28;20215;-68
2021/11/26 07:06:36;;;;;;;32.70;19.07;;;5.00;99.90;;;;;;5018858;28;20306;-70
2021/11/26 07:09:04;;;;;;;34.83;20.27;;;5.00;99.90;;;;;;5011584;28;20298;-69
2021/11/26 07:11:31;;;;;;;35.30;20.17;;;5.00;99.90;;;;;;5022861;28;20257;-69
2021/11/26 07:13:59;;;;;;;34.87;19.13;;;5.00;99.90;;;;;;5016943;28;20332;-67
2021/11/26 07:16:26;;;;;;;34.77;20.37;;;5.00;99.90;;;;;;5013736;28;20302;-68
2021/11/26 07:18:53;;;;;;;33.03;19.93;;;5.00;99.90;;;;;;5013468;28;20302;-68
2021/11/26 07:21:20;;;;;;;35.17;20.63;;;5.10;99.90;;;;;;5018059;28;20760;-68
2021/11/26 07:23:47;;;;;;;31.40;19.40;;;5.10;99.90;;;;;;5016442;28;20306;-68
2021/11/26 07:26:14;;;;;;;34.33;20.90;;;5.10;99.90;;;;;;5022808;28;20277;-69
2021/11/26 07:28:41;;;;;;;32.40;19.53;;;5.00;99.90;;;;;;5021155;28;20683;-71
2021/11/26 07:31:09;;;;;;;29.23;19.67;;;5.00;99.90;;;;;;5017810;28;20258;-66
2021/11/26 07:33:36;;;;;;;32.50;20.20;;;5.00;99.90;;;;;;5014567;28;20294;-68
2021/11/26 07:36:03;;;;;;;36.60;21.13;;;5.00;99.90;;;;;;5024949;28;20235;-68
2021/11/26 07:38:30;;;;;;;32.90;20.77;;;5.00;99.90;;;;;;5016995;28;20314;-68
2021/11/26 07:40:57;;;;;;;35.10;20.47;;;5.00;99.90;;;;;;5014171;28;20294;-69
2021/11/26 07:43:24;;;;;;;33.73;20.33;;;5.10;99.90;;;;;;5021713;28;20656;-66
2021/11/26 07:45:51;;;;;;;34.83;20.17;;;5.00;99.90;;;;;;5017775;28;20302;-69
2021/11/26 07:48:20;;;;;;;31.97;19.37;;;5.00;99.90;;;;;;5016791;28;20282;-67
2021/11/26 07:50:47;;;;;;;36.33;20.97;;;5.00;99.90;;;;;;5021080;28;20679;-69
2021/11/26 07:53:14;;;;;;;32.20;19.63;;;5.00;99.90;;;;;;5011968;28;20203;-67
2021/11/26 07:55:41;;;;;;;39.03;21.07;;;5.00;99.90;;;;;;5020992;28;20318;-67
2021/11/26 07:58:08;;;;;;;35.33;20.90;;;5.10;99.90;;;;;;5030039;28;20258;-69
2021/11/26 08:00:36;;;;;;;33.90;19.57;;;5.00;99.90;;;;;;5022390;28;20217;-69
2021/11/26 08:03:03;;;;;;;33.00;19.90;;;5.10;99.90;;;;;;5033250;28;20311;-68
2021/11/26 08:05:32;;;;;;;36.87;20.60;;;5.10;99.90;;;;;;5015695;28;20203;-69
2021/11/26 08:07:59;;;;;;;31.57;19.37;;;5.10;99.90;;;;;;5033627;28;20581;-68
2021/11/26 08:10:26;;;;;;;35.53;19.93;;;5.20;99.90;;;;;;5022896;28;20234;-69
2021/11/26 08:12:54;;;;;;;31.37;19.60;;;5.10;99.90;;;;;;5028821;28;20658;-66
2021/11/26 08:15:21;;;;;;;35.90;21.27;;;5.10;99.90;;;;;;5026999;28;20479;-67
2021/11/26 08:17:48;;;;;;;34.97;19.50;;;5.10;99.90;;;;;;5023439;28;20731;-67
2021/11/26 08:20:17;;;;;;;36.47;19.97;;;5.20;99.90;;;;;;5020338;28;20298;-69
2021/11/26 08:22:47;;;;;;;35.70;19.47;;;5.20;99.90;;;;;;5018154;28;20715;-68
2021/11/26 08:25:15;;;;;;;34.10;19.70;;;5.20;99.90;;;;;;5014646;28;20263;-67
2021/11/26 08:27:42;;;;;;;33.13;20.67;;;5.20;99.90;;;;;;5029149;28;20386;-67
2021/11/26 08:30:10;;;;;;;30.63;20.27;;;5.20;99.90;;;;;;5020424;28;20607;-67
2021/11/26 08:32:37;;;;;;;39.80;20.77;;;5.30;99.90;;;;;;5029767;28;20207;-68
2021/11/26 08:35:05;;;;;;;35.83;21.40;;;5.30;99.90;;;;;;5023783;28;20242;-67
2021/11/26 08:37:32;;;;;;;34.40;21.27;;;5.30;99.90;;;;;;5028176;28;20258;-66
2021/11/26 08:40:02;;;;;;;34.20;19.30;;;5.40;99.90;;;;;;5017361;28;20239;-67
2021/11/26 08:42:30;;;;;;;29.50;19.47;;;5.30;99.90;;;;;;5028010;28;20206;-66
2021/11/26 08:44:57;;;;;;;37.60;19.73;;;5.30;99.90;;;;;;5021646;28;20717;-67
2021/11/26 08:47:26;;;;;;;33.20;20.17;;;5.30;99.90;;;;;;5019959;28;20643;-68
2021/11/26 08:49:53;;;;;;;32.27;19.67;;;5.30;99.90;;;;;;5018623;28;20210;-68
2021/11/26 08:52:20;;;;;;;36.93;21.30;;;5.30;99.90;;;;;;5025329;28;20230;-69
2021/11/26 08:54:47;;;;;;;30.93;19.57;;;5.30;99.90;;;;;;5025409;28;20207;-69
2021/11/26 08:57:17;;;;;;;35.43;22.13;;;5.40;99.90;;;;;;5029477;28;20254;-68
2021/11/26 08:59:45;;;;;;;31.00;19.87;;;5.50;99.90;;;;;;5033395;28;20242;-68
2021/11/26 09:02:13;;;;;;;34.90;20.37;;;5.50;99.90;;;;;;5020418;28;20534;-67
2021/11/26 09:04:40;;;;;;;38.77;20.07;;;5.60;99.90;;;;;;5028883;28;20279;-68
2021/11/26 09:07:07;;;;;;;30.13;18.63;;;5.60;99.90;;;;;;5016906;28;20199;-68
2021/11/26 09:09:34;;;;;;;32.93;19.87;;;5.60;99.90;;;;;;5017525;28;20235;-68
2021/11/26 09:12:03;;;;;;;30.53;19.33;;;5.60;99.90;;;;;;5017170;28;20242;-67
2021/11/26 09:14:32;;;;;;;28.80;19.80;;;5.70;99.90;;;;;;5023735;28;20240;-68
2021/11/26 09:17:00;;;;;;;36.53;20.73;;;5.60;99.90;;;;;;5021311;28;20242;-67
2021/11/26 09:19:27;;;;;;;34.63;19.80;;;5.70;99.90;;;;;;5032595;28;20261;-67
2021/11/26 09:21:54;;;;;;;30.90;19.50;;;5.80;99.90;;;;;;5019682;28;20302;-67
2021/11/26 09:24:20;;;;;;;35.93;19.67;;;5.70;99.90;;;;;;5020102;28;20245;-68
2021/11/26 09:26:47;;;;;;;33.30;18.87;;;5.80;99.90;;;;;;5018869;28;20655;-69
2021/11/26 09:29:14;;;;;;;31.37;19.67;;;5.80;99.90;;;;;;5022719;28;20234;-68
2021/11/26 09:31:43;;;;;;;33.77;20.53;;;5.80;99.90;;;;;;5028870;28;20207;-72
2021/11/26 09:34:10;;;;;;;31.93;19.60;;;5.80;99.90;;;;;;5024752;28;20243;-68
2021/11/26 09:36:36;;;;;;;32.30;19.57;;;5.90;99.90;;;;;;5021901;28;20220;-68
2021/11/26 09:39:05;;;;;;;33.73;19.27;;;5.90;99.90;;;;;;5017426;28;20231;-68
2021/11/26 09:41:32;;;;;;;33.43;18.73;;;6.00;99.90;;;;;;5019881;28;20238;-67
2021/11/26 09:44:01;;;;;;;29.27;19.03;;;6.00;99.90;;;;;;5025846;28;20207;-68
2021/11/26 09:46:30;;;;;;;30.83;18.40;;;6.00;99.90;;;;;;5021879;28;20488;-68
2021/11/26 09:48:59;;;;;;;33.87;19.83;;;6.00;99.90;;;;;;5013015;28;20207;-70
2021/11/26 09:51:26;;;;;;;32.20;19.00;;;6.00;99.90;;;;;;5026066;28;20302;-68
2021/11/26 09:53:54;;;;;;;32.43;20.00;;;6.00;99.90;;;;;;5012767;28;20242;-69
2021/11/26 09:56:21;;;;;;;28.47;18.57;;;6.10;99.90;;;;;;5024254;28;20321;-66
2021/11/26 09:58:48;;;;;;;32.73;20.37;;;6.00;99.90;;;;;;5022317;28;20259;-67
2021/11/26 10:01:15;;;;;;;33.90;19.60;;;6.00;99.90;;;;;;5020148;28;20326;-67
2021/11/26 10:03:45;;;;;;;37.30;20.20;;;6.00;99.90;;;;;;5022890;28;20306;-68
2021/11/26 10:06:25;;;;;;;30.07;17.77;;;6.00;99.90;;;;;;5016604;28;20213;-68
2021/11/26 10:09:00;;;;;;;34.58;22.98;;;6.10;99.90;;;;;;5020437;28;20472;-69
2021/11/26 10:11:29;;;;;;;34.40;19.83;;;6.10;99.90;;;;;;5030563;28;20211;-67
2021/11/26 10:13:57;;;;;;;35.37;19.50;;;6.10;99.90;;;;;;5023695;28;20314;-70
2021/11/26 10:16:24;;;;;;;30.43;18.77;;;6.10;99.90;;;;;;5015375;28;20298;-70
2021/11/26 10:18:52;;;;;;;29.13;18.40;;;6.20;99.90;;;;;;5026797;28;20242;-70
2021/11/26 10:21:25;;;;;;;34.50;18.83;;;6.10;99.90;;;;;;5018817;28;20297;-70
2021/11/26 10:23:53;;;;;;;31.47;18.73;;;6.10;99.90;;;;;;5013673;28;20289;-69
2021/11/26 10:26:22;;;;;;;27.97;17.80;;;6.20;99.90;;;;;;5013241;28;20298;-67
2021/11/26 10:28:53;;;;;;;31.03;18.07;;;6.20;99.90;;;;;;5027832;28;20218;-70
2021/11/26 10:31:23;;;;;;;31.43;19.90;;;6.10;99.90;;;;;;5014779;28;20294;-69
2021/11/26 10:33:52;;;;;;;34.45;23.10;;;6.20;99.90;;;;;;5024803;28;20807;-70
2021/11/26 10:36:20;;;;;;;36.25;23.38;;;6.20;99.90;;;;;;5014462;28;20527;-70
2021/11/26 10:38:47;;;;;;;28.37;19.07;;;6.20;99.90;;;;;;5023816;28;20317;-70
2021/11/26 10:41:18;;;;;;;32.53;18.63;;;6.20;99.90;;;;;;5025419;28;20250;-71
2021/11/26 10:43:52;;;;;;;31.27;17.70;;;6.20;99.90;;;;;;5012678;28;20203;-71
2021/11/26 10:49:31;;;;;;;33.53;23.55;;;6.20;99.90;;;;;;5025001;28;20818;-69
2021/11/26 10:52:24;;;;;;;33.80;19.83;;;6.20;99.90;;;;;;5016810;28;20713;-67
2021/11/26 10:57:54;;;;;;;29.67;19.20;;;6.20;99.90;;;;;;5015190;28;20549;-67
2021/11/26 11:00:23;;;;;;;32.63;18.17;;;6.20;99.90;;;;;;5022305;28;20199;-69
2021/11/26 11:02:54;;;;;;;34.00;19.73;;;6.20;99.90;;;;;;5017668;28;20298;-68
2021/11/26 11:05:29;;;;;;;34.20;18.77;;;6.20;99.90;;;;;;5014352;28;20290;-68
2021/11/26 11:07:58;;;;;;;33.70;19.77;;;6.20;99.90;;;;;;5018878;28;20210;-68
2021/11/26 11:10:28;;;;;;;29.50;18.50;;;6.30;99.90;;;;;;5022007;28;20512;-66
2021/11/26 11:12:55;;;;;;;32.67;20.20;;;6.30;99.90;;;;;;5020208;28;20316;-69
2021/11/26 11:15:22;;;;;;;33.10;18.73;;;6.30;99.90;;;;;;5016432;28;20199;-68
2021/11/26 11:17:51;;;;;;;32.30;19.97;;;6.30;99.90;;;;;;5015932;28;20223;-68
2021/11/26 11:20:21;;;;;;;33.17;19.03;;;6.30;99.90;;;;;;5016726;28;20607;-69
2021/11/26 11:22:48;;;;;;;35.47;20.60;;;6.40;99.90;;;;;;5027083;28;20219;-67
2021/11/26 11:25:24;;;;;;;29.73;18.10;;;6.30;99.90;;;;;;5028225;28;20757;-69
2021/11/26 11:27:52;;;;;;;32.60;18.77;;;6.30;99.90;;;;;;5025177;28;20209;-68
2021/11/26 11:30:19;;;;;;;36.17;20.70;;;6.30;99.90;;;;;;5027583;28;20237;-69
2021/11/26 11:32:46;;;;;;;36.23;18.93;;;6.20;99.90;;;;;;5028414;28;20292;-68
2021/11/26 11:35:13;;;;;;;31.13;19.07;;;6.20;99.90;;;;;;5026719;28;20246;-69
2021/11/26 11:37:42;;;;;;;32.40;19.13;;;6.20;99.90;;;;;;5027917;28;20294;-69
2021/11/26 11:40:10;;;;;;;32.43;19.77;;;6.20;99.90;;;;;;5031569;28;20313;-69
2021/11/26 11:42:42;;;;;;;34.50;19.23;;;6.20;99.90;;;;;;5026902;28;20238;-68
2021/11/26 11:45:12;;;;;;;34.23;19.20;;;6.20;99.90;;;;;;5023637;28;20288;-68
2021/11/26 11:47:47;;;;;;;30.03;18.67;;;6.20;99.90;;;;;;5027854;28;20238;-67
2021/11/26 11:50:17;;;;;;;35.93;19.50;;;6.30;99.90;;;;;;5025369;28;20664;-68
2021/11/26 11:52:47;;;;;;;31.37;19.00;;;6.20;99.90;;;;;;5021352;28;20711;-70
2021/11/26 11:55:27;;;;;;;30.13;18.87;;;6.20;99.90;;;;;;5014570;28;20734;-70
2021/11/26 11:58:00;;;;;;;30.03;18.20;;;6.20;99.90;;;;;;5031185;28;20647;-70
2021/11/26 12:00:36;;;;;;;31.13;19.60;;;6.20;99.90;;;;;;5019916;28;20611;-70
2021/11/26 12:03:08;;;;;;;27.17;16.47;;;6.30;99.90;;;;;;5012703;28;20243;-69
2021/11/26 12:05:35;;;;;;;33.57;19.50;;;6.30;99.90;;;;;;5027209;28;20280;-69
2021/11/26 12:08:11;;;;;;;31.43;18.23;;;6.30;99.90;;;;;;5020254;28;20218;-69
2021/11/26 12:10:48;;;;;;;28.93;18.33;;;6.30;99.90;;;;;;5013364;28;20202;-70
2021/11/26 12:13:25;;;;;;;30.53;17.83;;;6.30;99.90;;;;;;5012317;28;20299;-69
2021/11/26 12:16:07;;;;;;;33.83;18.80;;;6.20;99.90;;;;;;5013722;28;20214;-71
2021/11/26 12:18:40;;;;;;;33.27;18.83;;;6.20;99.90;;;;;;5023775;28;20221;-69
2021/11/26 12:21:07;;;;;;;31.77;18.60;;;6.20;99.90;;;;;;5013503;28;20203;-70
2021/11/26 12:23:37;;;;;;;28.87;18.53;;;6.20;99.90;;;;;;5020691;28;20202;-70
2021/11/26 12:26:14;;;;;;;30.90;18.63;;;6.20;99.90;;;;;;5014472;28;20259;-69
2021/11/26 12:28:47;;;;;;;35.63;19.43;;;6.20;99.90;;;;;;5021151;28;20209;-70
2021/11/26 12:31:14;;;;;;;33.83;18.93;;;6.20;99.90;;;;;;5020021;28;20206;-70
2021/11/26 12:33:42;;;;;;;31.13;19.80;;;6.20;99.90;;;;;;5029421;28;20297;-68
2021/11/26 12:36:12;;;;;;;33.33;19.50;;;6.20;99.90;;;;;;5017723;28;20225;-68
2021/11/26 12:38:43;;;;;;;34.93;19.77;;;6.20;99.90;;;;;;5025113;28;20301;-71
2021/11/26 12:41:11;;;;;;;32.73;19.07;;;6.20;99.90;;;;;;5013847;28;20203;-69
2021/11/26 12:43:46;;;;;;;31.20;19.07;;;6.20;99.90;;;;;;5012103;28;20238;-69
2021/11/26 12:46:24;;;;;;;31.73;19.27;;;6.20;99.90;;;;;;5014841;28;20202;-69